createdAt,value
2022-11-06T00:00:08.276Z,97.10
2022-11-06T00:02:36.162Z,97.10
2022-11-06T00:05:18.135Z,97.20
2022-11-06T00:07:49.125Z,97.10
2022-11-06T00:10:18.047Z,96.90
2022-11-06T00:12:46.459Z,96.70
2022-11-06T00:15:14.609Z,96.80
2022-11-06T00:17:42.730Z,96.70
2022-11-06T00:20:11.716Z,96.70
2022-11-06T00:22:39.920Z,96.70
2022-11-06T00:25:10.309Z,96.60
2022-11-06T00:27:39.254Z,96.70
2022-11-06T00:30:09.445Z,96.70
2022-11-06T00:32:37.330Z,96.50
2022-11-06T00:35:05.833Z,96.90
2022-11-06T00:37:34.373Z,96.60
2022-11-06T00:40:02.274Z,96.50
2022-11-06T00:42:31.508Z,96.50
2022-11-06T00:44:59.394Z,96.40
2022-11-06T00:47:27.289Z,96.50
2022-11-06T00:49:55.170Z,96.50
2022-11-06T00:52:23.021Z,96.60
2022-11-06T00:54:50.934Z,96.80
2022-11-06T00:57:18.790Z,96.80
2022-11-06T00:59:48.000Z,96.70
2022-11-06T01:02:19.347Z,96.70
2022-11-06T01:04:47.415Z,96.70
2022-11-06T01:07:15.314Z,96.70
2022-11-06T01:09:43.172Z,96.70
2022-11-06T01:12:13.278Z,96.70
2022-11-06T01:14:43.114Z,96.90
2022-11-06T01:17:13.217Z,96.70
2022-11-06T01:19:41.448Z,96.40
2022-11-06T01:22:09.303Z,96.80
2022-11-06T01:24:37.377Z,96.00
2022-11-06T01:27:25.584Z,95.90
2022-11-06T01:29:53.337Z,97.10
2022-11-06T01:32:22.589Z,96.90
2022-11-06T01:34:51.025Z,96.70
2022-11-06T01:37:19.023Z,96.80
2022-11-06T01:39:46.932Z,96.50
2022-11-06T01:42:21.846Z,96.60
2022-11-06T01:45:26.636Z,96.60
2022-11-06T01:47:56.535Z,96.70
2022-11-06T01:50:25.504Z,96.70
2022-11-06T01:52:53.911Z,96.50
2022-11-06T01:55:25.971Z,96.40
2022-11-06T01:57:55.832Z,96.80
2022-11-06T02:00:23.871Z,97.10
2022-11-06T02:02:52.319Z,96.50
2022-11-06T02:05:21.835Z,95.20
2022-11-06T02:07:50.158Z,97.20
2022-11-06T02:10:18.394Z,97.10
2022-11-06T02:12:55.289Z,97.00
2022-11-06T02:15:34.127Z,96.90
2022-11-06T02:18:18.129Z,96.80
2022-11-06T02:21:04.573Z,94.80
2022-11-06T02:23:44.267Z,95.70
2022-11-06T02:26:27.071Z,97.20
2022-11-06T02:29:01.686Z,97.50
2022-11-06T02:31:33.662Z,97.00
2022-11-06T02:34:06.141Z,96.50
2022-11-06T02:36:39.422Z,96.70
2022-11-06T02:39:13.589Z,96.70
2022-11-06T02:41:45.362Z,96.80
2022-11-06T02:44:19.678Z,96.70
2022-11-06T02:46:51.760Z,96.70
2022-11-06T02:49:27.140Z,96.60
2022-11-06T02:51:58.569Z,96.40
2022-11-06T02:54:29.471Z,96.50
2022-11-06T02:57:01.328Z,96.50
2022-11-06T02:59:39.455Z,96.60
2022-11-06T03:02:11.604Z,96.50
2022-11-06T03:04:46.263Z,96.60
2022-11-06T03:07:20.868Z,96.60
2022-11-06T03:09:50.102Z,96.50
2022-11-06T03:12:25.154Z,95.40
2022-11-06T03:14:58.302Z,96.60
2022-11-06T03:17:35.514Z,96.30
2022-11-06T03:20:14.446Z,96.50
2022-11-06T03:22:46.692Z,96.50
2022-11-06T03:25:21.531Z,96.40
2022-11-06T03:27:58.921Z,96.50
2022-11-06T03:30:28.407Z,96.60
2022-11-06T03:33:02.352Z,96.50
2022-11-06T03:35:34.386Z,96.60
2022-11-06T03:38:06.185Z,96.60
2022-11-06T03:40:38.629Z,96.90
2022-11-06T03:43:08.726Z,93.40
2022-11-06T03:45:41.608Z,96.70
2022-11-06T03:48:13.359Z,96.50
2022-11-06T03:50:47.999Z,96.90
2022-11-06T03:53:19.655Z,96.90
2022-11-06T03:55:52.614Z,96.80
2022-11-06T03:58:23.925Z,96.70
2022-11-06T04:00:55.750Z,96.60
2022-11-06T04:03:29.595Z,96.50
2022-11-06T04:06:05.695Z,96.50
2022-11-06T04:08:51.741Z,96.60
2022-11-06T04:11:41.029Z,96.60
2022-11-06T04:14:10.093Z,96.70
2022-11-06T04:16:43.426Z,96.30
2022-11-06T04:19:16.000Z,96.70
2022-11-06T04:22:02.984Z,96.70
2022-11-06T04:25:00.298Z,96.50
2022-11-06T04:27:39.353Z,96.10
2022-11-06T04:30:10.098Z,96.30
2022-11-06T04:33:00.334Z,97.30
2022-11-06T04:35:35.325Z,96.80
2022-11-06T04:38:07.983Z,96.90
2022-11-06T04:40:46.640Z,96.00
2022-11-06T04:43:18.111Z,92.50
2022-11-06T04:45:50.518Z,94.70
2022-11-06T04:48:21.350Z,96.00
2022-11-06T04:50:53.429Z,97.10
2022-11-06T04:53:23.749Z,96.60
2022-11-06T04:55:54.843Z,97.10
2022-11-06T04:58:22.812Z,97.00
2022-11-06T05:00:51.891Z,96.90
2022-11-06T05:03:21.193Z,97.10
2022-11-06T05:05:49.032Z,95.90
2022-11-06T05:08:20.822Z,96.90
2022-11-06T05:10:49.071Z,96.70
2022-11-06T05:13:17.116Z,96.50
2022-11-06T05:15:44.934Z,96.40
2022-11-06T05:18:13.341Z,96.30
2022-11-06T05:20:42.786Z,95.50
2022-11-06T05:23:09.714Z,96.40
2022-11-06T05:25:40.082Z,96.30
2022-11-06T05:28:09.195Z,96.40
2022-11-06T05:30:37.821Z,96.30
2022-11-06T05:33:05.777Z,95.90
2022-11-06T05:35:34.096Z,96.40
2022-11-06T05:38:04.314Z,96.40
2022-11-06T05:40:32.186Z,95.80
2022-11-06T05:43:00.111Z,96.60
2022-11-06T05:45:27.986Z,96.50
2022-11-06T05:47:55.885Z,94.80
2022-11-06T05:50:23.870Z,96.20
2022-11-06T05:52:51.794Z,96.20
2022-11-06T05:55:21.146Z,93.90
2022-11-06T05:57:49.006Z,95.80
2022-11-06T06:00:17.209Z,96.30
2022-11-06T06:02:45.299Z,95.40
2022-11-06T06:05:14.571Z,96.20
2022-11-06T06:07:42.449Z,95.20
2022-11-06T06:10:11.094Z,96.00
2022-11-06T06:12:40.331Z,94.40
2022-11-06T06:15:09.017Z,95.40
2022-11-06T06:17:36.897Z,95.10
2022-11-06T06:20:05.814Z,93.30
2022-11-06T06:22:33.772Z,95.80
2022-11-06T06:25:02.229Z,96.30
2022-11-06T06:27:31.131Z,95.50
2022-11-06T06:30:02.191Z,96.70
2022-11-06T06:32:30.039Z,96.60
2022-11-06T06:34:57.878Z,96.80
2022-11-06T06:37:25.801Z,96.70
2022-11-06T06:39:53.650Z,96.50
2022-11-06T06:42:21.530Z,95.00
2022-11-06T06:44:49.415Z,96.70
2022-11-06T06:47:18.645Z,96.30
2022-11-06T06:49:46.871Z,96.50
2022-11-06T06:52:15.145Z,96.40
2022-11-06T06:54:43.162Z,94.30
2022-11-06T06:57:11.191Z,96.30
2022-11-06T06:59:39.068Z,94.70
2022-11-06T07:02:07.459Z,95.50
2022-11-06T07:04:36.683Z,94.40
2022-11-06T07:07:04.815Z,92.90
2022-11-06T07:09:32.888Z,93.50
2022-11-06T07:12:00.778Z,92.40
2022-11-06T07:14:28.649Z,92.20
2022-11-06T07:16:56.527Z,92.50
2022-11-06T07:19:24.515Z,92.90
2022-11-06T07:21:54.316Z,93.20
2022-11-06T07:24:22.188Z,92.70
2022-11-06T07:26:50.080Z,93.30
2022-11-06T07:29:18.013Z,92.40
2022-11-06T07:31:45.906Z,92.60
2022-11-06T07:34:13.963Z,94.00
2022-11-06T07:36:41.849Z,94.10
2022-11-06T07:39:11.064Z,93.60
2022-11-06T07:41:39.175Z,94.20
2022-11-06T07:44:07.075Z,94.30
2022-11-06T07:46:34.957Z,93.00
2022-11-06T07:49:02.919Z,94.20
2022-11-06T07:51:30.781Z,94.40
2022-11-06T07:53:58.728Z,94.70
2022-11-06T07:56:27.958Z,94.70
2022-11-06T07:58:55.804Z,94.80
2022-11-06T08:01:23.785Z,94.90
2022-11-06T08:03:51.741Z,94.70
2022-11-06T08:06:19.580Z,95.00
2022-11-06T08:08:47.489Z,94.00
2022-11-06T08:11:15.850Z,95.10
2022-11-06T08:13:45.086Z,95.00
2022-11-06T08:16:14.975Z,94.50
2022-11-06T08:18:43.357Z,94.90
2022-11-06T08:21:11.229Z,94.40
2022-11-06T08:23:39.104Z,95.20
2022-11-06T08:26:07.770Z,95.10
2022-11-06T08:28:36.334Z,95.00
2022-11-06T08:31:06.623Z,94.60
2022-11-06T08:33:34.776Z,93.20
2022-11-06T08:36:03.504Z,93.70
2022-11-06T08:38:31.352Z,93.80
2022-11-06T08:40:59.235Z,91.10
2022-11-06T08:43:27.451Z,92.60
2022-11-06T08:45:55.307Z,94.30
2022-11-06T08:48:24.509Z,94.00
2022-11-06T08:50:52.440Z,92.50
2022-11-06T08:53:20.467Z,90.90
2022-11-06T08:55:48.392Z,94.00
2022-11-06T08:58:16.313Z,94.00
2022-11-06T09:00:44.795Z,95.60
2022-11-06T09:03:15.615Z,95.60
2022-11-06T09:05:46.200Z,95.00
2022-11-06T09:08:15.988Z,95.50
2022-11-06T09:10:44.552Z,95.30
2022-11-06T09:13:13.694Z,94.60
2022-11-06T09:15:41.820Z,95.10
2022-11-06T09:18:11.203Z,95.00
2022-11-06T09:20:39.288Z,94.90
2022-11-06T09:23:10.520Z,94.80
2022-11-06T09:25:38.524Z,94.90
2022-11-06T09:28:06.429Z,94.70
2022-11-06T09:30:34.313Z,94.60
2022-11-06T09:33:05.303Z,94.70
2022-11-06T09:35:37.060Z,94.70
2022-11-06T09:38:06.263Z,94.60
2022-11-06T09:40:37.837Z,94.60
2022-11-06T09:43:27.280Z,94.70
2022-11-06T09:46:07.306Z,94.50
2022-11-06T09:48:40.198Z,94.60
2022-11-06T09:51:17.609Z,94.40
2022-11-06T09:53:51.168Z,93.20
2022-11-06T09:56:25.705Z,94.60
2022-11-06T09:58:55.130Z,95.20
2022-11-06T10:01:27.357Z,95.20
2022-11-06T10:03:58.620Z,94.90
2022-11-06T10:06:28.420Z,94.90
2022-11-06T10:09:00.638Z,93.90
2022-11-06T10:11:50.310Z,92.20
2022-11-06T10:14:32.448Z,92.60
2022-11-06T10:17:07.137Z,95.20
2022-11-06T10:19:41.337Z,92.30
2022-11-06T10:22:16.850Z,95.40
2022-11-06T10:24:47.460Z,94.60
2022-11-06T10:27:19.440Z,92.00
2022-11-06T10:30:09.707Z,95.60
2022-11-06T10:32:57.479Z,95.40
2022-11-06T10:35:27.781Z,95.40
2022-11-06T10:38:02.090Z,95.40
2022-11-06T10:40:33.114Z,90.90
2022-11-06T10:43:15.443Z,94.40
2022-11-06T10:45:48.209Z,95.10
2022-11-06T10:48:28.929Z,95.90
2022-11-06T10:51:08.628Z,95.30
2022-11-06T10:53:42.747Z,95.00
2022-11-06T10:56:30.281Z,94.10
2022-11-06T10:58:59.762Z,95.10
2022-11-06T11:01:27.825Z,94.40
2022-11-06T11:03:55.903Z,95.00
2022-11-06T11:06:23.808Z,95.00
2022-11-06T11:08:52.673Z,94.80
2022-11-06T11:11:23.624Z,93.80
2022-11-06T11:14:12.936Z,91.10
2022-11-06T11:16:45.548Z,94.90
2022-11-06T11:19:24.518Z,94.60
2022-11-06T11:21:58.009Z,94.30
2022-11-06T11:24:26.848Z,93.90
2022-11-06T11:26:56.726Z,94.50
2022-11-06T11:29:26.946Z,94.50
2022-11-06T11:31:58.929Z,95.10
2022-11-06T11:34:29.281Z,94.80
2022-11-06T11:37:00.234Z,95.00
2022-11-06T11:39:33.104Z,95.10
2022-11-06T11:42:29.581Z,94.90
2022-11-06T11:45:15.686Z,93.70
2022-11-06T11:47:47.267Z,95.00
2022-11-06T11:50:25.749Z,94.90
2022-11-06T11:52:58.017Z,94.70
2022-11-06T11:55:28.404Z,94.70
2022-11-06T11:57:59.056Z,94.50
2022-11-06T12:00:28.446Z,94.30
2022-11-06T12:03:01.652Z,90.10
2022-11-06T12:05:34.518Z,93.60
2022-11-06T12:08:02.983Z,94.30
2022-11-06T12:10:34.608Z,93.10
2022-11-06T12:13:05.465Z,94.20
2022-11-06T12:15:44.936Z,94.40
2022-11-06T12:18:17.219Z,94.30
2022-11-06T12:20:52.351Z,94.00
2022-11-06T12:23:28.222Z,87.60
2022-11-06T12:26:02.907Z,90.90
2022-11-06T12:28:33.870Z,88.50
2022-11-06T12:31:07.026Z,94.40
2022-11-06T12:34:05.219Z,87.90
2022-11-06T12:36:34.656Z,91.80
2022-11-06T12:39:05.261Z,92.10
2022-11-06T12:41:36.633Z,94.60
2022-11-06T12:44:05.041Z,93.50
2022-11-06T12:46:44.510Z,94.30
2022-11-06T12:49:36.353Z,94.40
2022-11-06T12:52:18.210Z,90.80
2022-11-06T12:55:12.066Z,94.30
2022-11-06T12:57:52.061Z,93.70
2022-11-06T13:00:24.955Z,92.20
2022-11-06T13:03:11.636Z,93.10
2022-11-06T13:05:52.941Z,90.00
2022-11-06T13:08:31.076Z,91.30
2022-11-06T13:11:09.126Z,89.60
2022-11-06T13:13:46.399Z,94.00
2022-11-06T13:16:26.337Z,93.20
2022-11-06T13:18:59.557Z,95.00
2022-11-06T13:21:36.851Z,94.30
2022-11-06T13:24:11.749Z,94.50
2022-11-06T13:26:45.306Z,94.60
2022-11-06T13:29:16.733Z,93.80
2022-11-06T13:31:51.180Z,93.80
2022-11-06T13:34:23.395Z,93.90
2022-11-06T13:36:52.822Z,93.70
2022-11-06T13:39:29.646Z,93.60
2022-11-06T13:41:58.784Z,93.60
2022-11-06T13:44:28.051Z,93.50
2022-11-06T13:47:00.028Z,93.30
2022-11-06T13:49:34.998Z,92.20
2022-11-06T13:52:11.775Z,91.80
2022-11-06T13:54:55.343Z,91.50
2022-11-06T13:57:46.862Z,92.00
2022-11-06T14:00:22.559Z,83.90
2022-11-06T14:03:38.803Z,91.40
2022-11-06T14:06:08.402Z,92.80
2022-11-06T14:08:44.397Z,92.50
2022-11-06T14:11:14.851Z,92.60
2022-11-06T14:13:56.506Z,92.20
2022-11-06T14:16:30.589Z,92.60
2022-11-06T14:19:02.797Z,91.90
2022-11-06T14:21:49.018Z,92.70
2022-11-06T14:24:33.967Z,92.70
2022-11-06T14:27:03.622Z,92.70
2022-11-06T14:29:57.368Z,92.70
2022-11-06T14:32:41.155Z,91.60
2022-11-06T14:35:51.591Z,92.30
2022-11-06T14:38:39.405Z,91.40
2022-11-06T14:41:51.484Z,90.80
2022-11-06T14:44:26.793Z,91.60
2022-11-06T14:46:58.609Z,93.30
2022-11-06T14:49:36.548Z,89.30
2022-11-06T14:52:07.857Z,90.90
2022-11-06T14:54:40.275Z,91.50
2022-11-06T14:57:10.195Z,88.20
2022-11-06T14:59:42.000Z,93.20
2022-11-06T15:02:20.442Z,92.90
2022-11-06T15:04:53.762Z,93.20
2022-11-06T15:08:03.349Z,93.00
2022-11-06T15:10:49.026Z,92.00
2022-11-06T15:13:33.539Z,93.00
2022-11-06T15:16:13.989Z,93.20
2022-11-06T15:18:45.262Z,92.50
2022-11-06T15:21:22.950Z,92.00
2022-11-06T15:23:59.577Z,92.90
2022-11-06T15:26:30.384Z,93.40
2022-11-06T15:29:12.694Z,93.30
2022-11-06T15:31:45.201Z,90.50
2022-11-06T15:34:20.507Z,93.30
2022-11-06T15:36:53.264Z,90.40
2022-11-06T15:39:33.011Z,92.90
2022-11-06T15:42:01.329Z,88.90
2022-11-06T15:44:29.966Z,90.00
2022-11-06T15:47:00.680Z,93.60
2022-11-06T15:49:28.536Z,93.30
2022-11-06T15:51:58.322Z,91.10
2022-11-06T15:54:35.965Z,93.30
2022-11-06T15:57:07.155Z,90.90
2022-11-06T15:59:35.155Z,92.00
2022-11-06T16:02:13.445Z,93.10
2022-11-06T16:04:42.053Z,93.10
2022-11-06T16:07:10.138Z,92.20
2022-11-06T16:09:38.450Z,90.60
2022-11-06T16:12:07.066Z,92.60
2022-11-06T16:14:39.869Z,92.70
2022-11-06T16:17:13.250Z,92.80
2022-11-06T16:19:41.534Z,92.60
2022-11-06T16:22:12.237Z,92.50
2022-11-06T16:24:44.718Z,92.30
2022-11-06T16:27:13.978Z,92.40
2022-11-06T16:29:47.968Z,92.40
2022-11-06T16:32:20.681Z,92.30
2022-11-06T16:34:49.273Z,92.40
2022-11-06T16:37:36.853Z,92.20
2022-11-06T16:40:07.085Z,91.10
2022-11-06T16:42:36.441Z,92.60
2022-11-06T16:45:16.607Z,92.50
2022-11-06T16:48:24.837Z,91.40
2022-11-06T16:50:56.179Z,88.00
2022-11-06T16:53:26.807Z,90.50
2022-11-06T16:55:57.255Z,93.20
2022-11-06T16:58:25.354Z,93.00
2022-11-06T17:01:01.150Z,88.50
2022-11-06T17:03:35.200Z,86.60
2022-11-06T17:06:04.764Z,82.20
2022-11-06T17:08:36.910Z,84.70
2022-11-06T17:11:21.714Z,90.20
2022-11-06T17:13:51.305Z,91.50
2022-11-06T17:16:21.529Z,91.00
2022-11-06T17:18:49.540Z,91.50
2022-11-06T17:21:20.813Z,91.90
2022-11-06T17:23:49.751Z,90.70
2022-11-06T17:26:22.512Z,89.90
2022-11-06T17:28:50.378Z,90.30
2022-11-06T17:31:20.296Z,90.90
2022-11-06T17:33:48.875Z,87.50
2022-11-06T17:36:21.087Z,90.10
2022-11-06T17:38:49.565Z,87.80
2022-11-06T17:41:29.718Z,92.00
2022-11-06T17:43:58.584Z,92.00
2022-11-06T17:46:27.766Z,91.60
2022-11-06T17:48:56.454Z,90.90
2022-11-06T17:51:43.670Z,91.50
2022-11-06T17:54:12.221Z,87.10
2022-11-06T17:56:41.216Z,90.10
2022-11-06T17:59:10.059Z,92.30
2022-11-06T18:01:38.747Z,92.10
2022-11-06T18:04:07.923Z,92.00
2022-11-06T18:06:37.476Z,91.80
2022-11-06T18:09:08.350Z,83.60
2022-11-06T18:11:36.264Z,90.70
2022-11-06T18:14:04.787Z,92.20
2022-11-06T18:16:39.688Z,92.30
2022-11-06T18:19:12.093Z,85.90
2022-11-06T18:21:41.342Z,89.20
2022-11-06T18:24:09.448Z,92.00
2022-11-06T18:26:38.203Z,91.10
2022-11-06T18:29:06.088Z,85.20
2022-11-06T18:31:34.009Z,88.00
2022-11-06T18:34:02.288Z,86.20
2022-11-06T18:36:30.148Z,93.20
2022-11-06T18:38:59.423Z,92.70
2022-11-06T18:41:27.661Z,89.90
2022-11-06T18:43:57.637Z,91.10
2022-11-06T18:46:27.127Z,92.40
2022-11-06T18:48:56.009Z,92.30
2022-11-06T18:51:34.372Z,92.20
2022-11-06T18:54:06.928Z,92.30
2022-11-06T18:56:35.902Z,92.10
2022-11-06T18:59:04.610Z,91.80
2022-11-06T19:01:34.524Z,92.00
2022-11-06T19:04:04.546Z,91.80
2022-11-06T19:06:33.029Z,91.50
2022-11-06T19:09:01.112Z,92.20
2022-11-06T19:11:30.463Z,92.10
2022-11-06T19:13:58.375Z,92.20
2022-11-06T19:16:26.368Z,92.10
2022-11-06T19:21:29.945Z,92.00
2022-11-06T19:24:03.529Z,92.00
2022-11-06T19:26:35.069Z,92.00
2022-11-06T19:29:03.002Z,92.10
2022-11-06T19:31:33.007Z,92.00
2022-11-06T19:34:02.311Z,91.80
2022-11-06T19:36:31.108Z,91.90
2022-11-06T19:38:59.637Z,90.90
2022-11-06T19:41:28.218Z,91.70
2022-11-06T19:43:57.437Z,91.90
2022-11-06T19:46:29.753Z,90.00
2022-11-06T19:49:01.789Z,91.60
2022-11-06T19:51:30.670Z,90.20
2022-11-06T19:53:58.728Z,91.50
2022-11-06T19:56:26.665Z,91.30
2022-11-06T19:58:54.706Z,91.10
2022-11-06T20:01:24.013Z,90.80
2022-11-06T20:03:51.949Z,91.20
2022-11-06T20:06:19.848Z,91.10
2022-11-06T20:08:49.126Z,91.10
2022-11-06T20:11:18.118Z,91.10
2022-11-06T20:13:47.004Z,91.10
2022-11-06T20:16:17.075Z,91.00
2022-11-06T20:18:50.873Z,90.90
2022-11-06T20:21:19.095Z,91.00
2022-11-06T20:23:46.976Z,90.80
2022-11-06T20:26:15.556Z,91.10
2022-11-06T20:28:43.636Z,91.10
2022-11-06T20:31:12.970Z,91.10
2022-11-06T20:33:41.179Z,90.90
2022-11-06T20:36:16.165Z,90.90
2022-11-06T20:38:44.814Z,87.80
2022-11-06T20:41:12.958Z,90.90
2022-11-06T20:43:40.905Z,90.90
2022-11-06T20:46:09.427Z,90.90
2022-11-06T20:48:37.323Z,91.00
2022-11-06T20:51:07.741Z,90.90
2022-11-06T20:53:37.007Z,91.00
2022-11-06T20:56:08.055Z,90.90
2022-11-06T20:58:36.178Z,91.10
2022-11-06T21:01:05.552Z,91.20
2022-11-06T21:03:33.761Z,91.20
2022-11-06T21:06:01.740Z,91.10
2022-11-06T21:08:29.950Z,91.20
2022-11-06T21:11:06.023Z,91.50
2022-11-06T21:13:35.013Z,91.30
2022-11-06T21:16:05.549Z,91.30
2022-11-06T21:18:37.042Z,91.20
2022-11-06T21:21:05.534Z,91.40
2022-11-06T21:23:33.645Z,91.40
2022-11-06T21:26:06.579Z,91.60
2022-11-06T21:28:34.467Z,91.70
2022-11-06T21:31:02.301Z,91.70
2022-11-06T21:33:30.180Z,91.60
2022-11-06T21:36:06.556Z,91.80
2022-11-06T21:38:34.519Z,91.80
2022-11-06T21:41:07.504Z,91.90
2022-11-06T21:43:35.796Z,90.60
2022-11-06T21:46:04.672Z,90.30
2022-11-06T21:48:45.742Z,92.10
2022-11-06T21:51:16.231Z,92.00
2022-11-06T21:54:01.531Z,91.40
2022-11-06T21:56:30.916Z,92.30
2022-11-06T21:59:00.348Z,92.30
2022-11-06T22:01:29.063Z,92.20
2022-11-06T22:03:57.026Z,92.40
2022-11-06T22:06:26.210Z,92.50
2022-11-06T22:08:56.250Z,92.40
2022-11-06T22:11:26.552Z,92.50
2022-11-06T22:13:57.478Z,92.40
2022-11-06T22:16:27.134Z,91.80
2022-11-06T22:18:55.555Z,92.50
2022-11-06T22:21:25.355Z,92.70
2022-11-06T22:23:53.738Z,92.60
2022-11-06T22:26:24.640Z,92.90
2022-11-06T22:28:56.033Z,92.90
2022-11-06T22:31:24.757Z,92.90
2022-11-06T22:33:54.109Z,92.80
2022-11-06T22:36:22.924Z,91.70
2022-11-06T22:38:51.643Z,92.90
2022-11-06T22:41:21.240Z,92.90
2022-11-06T22:43:49.127Z,92.70
2022-11-06T22:46:20.639Z,92.80
2022-11-06T22:48:48.776Z,92.90
2022-11-06T22:51:21.068Z,92.80
2022-11-06T22:53:50.194Z,92.90
2022-11-06T22:56:18.243Z,92.90
2022-11-06T22:58:46.368Z,92.90
2022-11-06T23:01:14.939Z,92.80
2022-11-06T23:03:44.181Z,92.90
2022-11-06T23:06:12.043Z,93.00
2022-11-06T23:08:45.557Z,93.20
2022-11-06T23:11:15.582Z,93.10
2022-11-06T23:13:44.372Z,93.20
2022-11-06T23:16:13.941Z,93.20
2022-11-06T23:18:42.017Z,93.20
2022-11-06T23:21:16.997Z,93.10
2022-11-06T23:23:46.215Z,93.10
2022-11-06T23:26:15.560Z,93.00
2022-11-06T23:28:43.855Z,93.10
2022-11-06T23:31:13.395Z,93.10
2022-11-06T23:33:41.345Z,93.20
2022-11-06T23:36:10.784Z,93.40
2022-11-06T23:38:40.216Z,93.30
2022-11-06T23:41:22.855Z,93.30
2022-11-06T23:43:51.609Z,93.20
2022-11-06T23:46:19.193Z,93.70
2022-11-06T23:48:47.104Z,93.50
2022-11-06T23:51:14.985Z,93.40
2022-11-06T23:53:44.199Z,93.40
2022-11-06T23:56:13.989Z,93.40
2022-11-06T23:58:42.222Z,93.40
